Time;durP1;ratioP1;P1;durP2;ratioP2;P2;SDS_P1;SDS_P2;PMS_P1;PMS_P2;Temp;Humidity;BMP_temperature;BMP_pressure;BME280_temperature;BME280_humidity;BME280_pressure;Samples;Min_cycle;Max_cycle;Signal;HPM_P1;HPM_P2
2021/04/22 04:15:00;;;;;;;0.68;0.50;;;4.40;99.90;;;;;;5053498;28;20060;-70
2021/04/22 04:17:25;;;;;;;2.15;0.32;;;4.40;99.90;;;;;;5053498;28;20025;-72
2021/04/22 04:19:52;;;;;;;0.43;0.38;;;4.30;99.90;;;;;;5052563;28;20023;-72
2021/04/22 04:22:18;;;;;;;0.30;0.30;;;4.30;99.90;;;;;;5041768;28;20130;-70
2021/04/22 04:24:43;;;;;;;2.45;0.60;;;4.30;99.90;;;;;;5040951;28;20486;-70
2021/04/22 04:27:09;;;;;;;1.23;0.40;;;4.30;99.90;;;;;;5044907;28;20064;-69
2021/04/22 04:29:35;;;;;;;0.30;0.30;;;4.20;99.90;;;;;;5053166;28;20104;-67
2021/04/22 04:32:01;;;;;;;0.90;0.40;;;4.30;99.90;;;;;;5040260;28;20021;-69
2021/04/22 04:34:27;;;;;;;0.30;0.30;;;4.60;99.90;;;;;;5054094;28;20025;-73
2021/04/22 04:36:52;;;;;;;0.47;0.43;;;4.50;99.90;;;;;;5053290;28;20021;-68
2021/04/22 04:39:18;;;;;;;1.67;0.30;;;4.50;99.90;;;;;;5053140;28;20028;-69
2021/04/22 04:41:44;;;;;;;0.30;0.30;;;4.40;99.90;;;;;;5052582;28;20025;-70
2021/04/22 04:44:10;;;;;;;0.40;0.40;;;4.40;99.90;;;;;;5052829;28;20025;-70
2021/04/22 04:46:37;;;;;;;0.30;0.30;;;4.40;99.90;;;;;;5052505;28;20079;-70
2021/04/22 04:49:03;;;;;;;0.85;0.30;;;4.30;99.90;;;;;;5052656;28;20366;-70
2021/04/22 04:51:29;;;;;;;1.27;0.50;;;4.30;99.90;;;;;;5052517;28;20029;-69
2021/04/22 04:53:55;;;;;;;0.30;0.30;;;4.30;99.90;;;;;;5052354;28;20070;-69
2021/04/22 04:56:21;;;;;;;0.20;0.20;;;4.30;99.90;;;;;;5050597;28;20028;-71
2021/04/22 04:58:48;;;;;;;0.40;0.40;;;4.30;99.90;;;;;;5052261;28;20488;-69
2021/04/22 05:01:14;;;;;;;0.30;0.30;;;4.30;99.90;;;;;;5051742;28;20061;-69
2021/04/22 05:03:40;;;;;;;0.32;0.32;;;4.30;99.90;;;;;;5051322;28;20037;-69
2021/04/22 05:06:06;;;;;;;0.40;0.30;;;4.40;99.90;;;;;;5051135;28;20021;-69
2021/04/22 05:08:33;;;;;;;1.83;0.38;;;4.50;99.90;;;;;;5049998;28;20033;-69
2021/04/22 05:11:00;;;;;;;0.30;0.30;;;4.40;99.90;;;;;;5052118;28;20130;-69
2021/04/22 05:13:27;;;;;;;3.10;0.30;;;4.40;99.90;;;;;;5034627;28;20029;-69
2021/04/22 05:15:52;;;;;;;0.40;0.40;;;4.40;99.90;;;;;;5039561;28;20052;-69
2021/04/22 05:18:18;;;;;;;0.55;0.30;;;4.40;99.90;;;;;;5038799;28;20029;-69
2021/04/22 05:20:44;;;;;;;1.13;0.38;;;4.40;99.90;;;;;;5044600;28;20016;-69
2021/04/22 05:23:10;;;;;;;0.30;0.30;;;4.40;99.90;;;;;;5037770;28;20041;-69
2021/04/22 05:25:35;;;;;;;0.30;0.30;;;4.30;99.90;;;;;;5052029;28;20025;-69
2021/04/22 05:28:01;;;;;;;0.38;0.32;;;4.30;99.90;;;;;;5051780;28;20104;-69
2021/04/22 05:30:27;;;;;;;0.50;0.40;;;4.30;99.90;;;;;;5051398;28;20029;-68
2021/04/22 05:32:53;;;;;;;0.30;0.30;;;4.30;99.90;;;;;;5047738;28;20037;-68
2021/04/22 05:35:19;;;;;;;0.45;0.30;;;4.20;99.90;;;;;;5040151;28;20025;-67
2021/04/22 05:37:45;;;;;;;2.00;0.30;;;4.30;99.90;;;;;;5051378;28;20035;-69
2021/04/22 05:40:11;;;;;;;0.77;0.40;;;5.30;99.90;;;;;;5038981;28;20266;-69
2021/04/22 05:42:37;;;;;;;0.32;0.30;;;5.30;99.90;;;;;;5031261;28;20037;-69
2021/04/22 05:45:05;;;;;;;1.10;0.50;;;5.00;99.90;;;;;;5032046;28;20022;-69
2021/04/22 05:47:31;;;;;;;3.30;0.40;;;4.80;99.90;;;;;;5044473;28;20220;-69
2021/04/22 05:49:57;;;;;;;2.10;0.30;;;4.50;99.90;;;;;;5051723;28;20293;-68
2021/04/22 05:52:23;;;;;;;0.40;0.40;;;4.40;99.90;;;;;;5040925;28;20705;-69
2021/04/22 05:54:48;;;;;;;0.30;0.30;;;4.40;99.90;;;;;;5047896;28;20075;-71
2021/04/22 05:57:14;;;;;;;0.75;0.45;;;4.30;99.90;;;;;;5051549;28;20033;-69
2021/04/22 05:59:40;;;;;;;4.95;0.43;;;4.30;99.90;;;;;;5048288;28;20072;-69
2021/04/22 06:02:06;;;;;;;0.30;0.30;;;5.80;99.90;;;;;;5032067;28;20029;-68
2021/04/22 06:04:31;;;;;;;0.30;0.30;;;6.60;99.90;;;;;;5051838;28;20479;-71
2021/04/22 06:06:57;;;;;;;0.30;0.30;;;5.90;99.90;;;;;;5051459;28;20472;-69
2021/04/22 06:09:23;;;;;;;0.20;0.20;;;5.40;99.90;;;;;;5046580;28;20465;-69
2021/04/22 06:11:49;;;;;;;0.30;0.30;;;5.10;99.90;;;;;;5046543;28;20063;-67
2021/04/22 06:14:14;;;;;;;1.10;0.43;;;4.80;99.90;;;;;;5041158;28;20041;-67
2021/04/22 06:16:40;;;;;;;0.50;0.30;;;4.70;99.90;;;;;;5036792;28;20052;-69
2021/04/22 06:19:06;;;;;;;0.30;0.30;;;4.60;99.90;;;;;;5037201;28;20466;-67
2021/04/22 06:21:32;;;;;;;0.47;0.38;;;4.60;99.90;;;;;;5036880;28;20033;-67
2021/04/22 06:23:58;;;;;;;0.63;0.40;;;4.50;99.90;;;;;;5051171;28;20029;-69
2021/04/22 06:26:24;;;;;;;0.40;0.40;;;4.50;99.90;;;;;;5049121;28;20017;-68
2021/04/22 06:28:51;;;;;;;0.32;0.32;;;4.50;99.90;;;;;;5039077;28;20036;-68
2021/04/22 06:31:17;;;;;;;0.40;0.38;;;4.60;99.90;;;;;;5050681;28;20108;-68
2021/04/22 06:33:42;;;;;;;0.28;0.28;;;4.50;99.90;;;;;;5050837;28;20155;-70
2021/04/22 06:36:08;;;;;;;0.57;0.30;;;4.50;99.90;;;;;;5036577;28;20032;-73
2021/04/22 06:38:34;;;;;;;0.38;0.30;;;4.60;99.90;;;;;;5043762;28;20040;-72
2021/04/22 06:41:00;;;;;;;0.93;0.43;;;4.70;99.90;;;;;;5050752;28;20104;-70
2021/04/22 06:43:26;;;;;;;0.28;0.28;;;4.70;99.90;;;;;;5053892;28;20082;-70
2021/04/22 06:45:52;;;;;;;0.60;0.30;;;4.70;99.90;;;;;;5054919;28;20017;-70
2021/04/22 06:48:18;;;;;;;0.85;0.40;;;4.70;99.90;;;;;;5054929;28;20397;-70
2021/04/22 06:50:44;;;;;;;0.73;0.40;;;4.80;99.90;;;;;;5054970;28;20036;-71
2021/04/22 06:53:11;;;;;;;0.30;0.30;;;4.90;99.90;;;;;;5055038;28;20100;-69
2021/04/22 06:55:38;;;;;;;0.40;0.40;;;5.00;99.90;;;;;;5055313;28;20037;-73
2021/04/22 06:58:05;;;;;;;0.40;0.38;;;5.10;99.90;;;;;;5054788;28;20100;-72
2021/04/22 07:00:38;;;;;;;0.45;0.40;;;5.20;99.90;;;;;;5051514;28;20028;-73
2021/04/22 07:03:05;;;;;;;1.90;0.60;;;5.40;99.90;;;;;;5045893;28;20090;-73
2021/04/22 07:05:31;;;;;;;0.63;0.40;;;5.50;98.70;;;;;;5047653;28;20044;-73
2021/04/22 07:07:57;;;;;;;2.92;0.40;;;5.60;97.70;;;;;;5054055;28;20052;-73
2021/04/22 07:10:23;;;;;;;1.48;0.30;;;5.70;97.10;;;;;;5054479;28;20476;-73
2021/04/22 07:12:49;;;;;;;1.45;0.30;;;5.70;95.00;;;;;;5054412;28;20388;-73
2021/04/22 07:15:15;;;;;;;0.38;0.30;;;5.90;94.80;;;;;;5052820;28;20056;-74
2021/04/22 07:17:42;;;;;;;0.77;0.40;;;5.90;93.20;;;;;;5054494;28;20013;-74
2021/04/22 07:20:11;;;;;;;0.65;0.40;;;5.90;91.20;;;;;;5048344;28;20044;-74
2021/04/22 07:22:38;;;;;;;0.67;0.33;;;5.90;91.20;;;;;;5036212;28;20103;-74
2021/04/22 07:25:04;;;;;;;1.95;0.50;;;5.80;88.30;;;;;;5041481;28;20263;-74
2021/04/22 07:27:30;;;;;;;0.40;0.40;;;6.90;99.90;;;;;;5034475;28;20108;-74
2021/04/22 07:29:56;;;;;;;0.45;0.30;;;6.90;82.00;;;;;;5037607;28;20152;-74
2021/04/22 07:32:21;;;;;;;1.65;0.40;;;6.60;81.00;;;;;;5036090;28;20374;-72
2021/04/22 07:34:48;;;;;;;0.30;0.30;;;6.40;81.80;;;;;;5053455;28;20374;-71
2021/04/22 07:37:15;;;;;;;0.30;0.30;;;6.40;83.80;;;;;;5051310;28;20028;-72
2021/04/22 07:39:42;;;;;;;0.85;0.30;;;6.40;82.80;;;;;;5050615;28;20357;-72
2021/04/22 07:42:08;;;;;;;1.92;0.30;;;6.40;81.80;;;;;;5047076;28;20045;-71
2021/04/22 07:44:34;;;;;;;0.40;0.40;;;6.40;80.80;;;;;;5047911;28;20025;-72
2021/04/22 07:47:00;;;;;;;0.40;0.30;;;6.40;80.50;;;;;;5044172;28;20029;-72
2021/04/22 07:49:26;;;;;;;0.73;0.40;;;6.50;80.80;;;;;;5049543;28;20066;-71
2021/04/22 07:51:52;;;;;;;0.30;0.30;;;6.50;79.80;;;;;;5053527;28;20020;-71
2021/04/22 07:54:18;;;;;;;0.40;0.40;;;6.50;78.60;;;;;;5052797;28;20404;-71
2021/04/22 07:56:43;;;;;;;1.13;0.35;;;6.50;77.90;;;;;;5053930;28;20028;-71
2021/04/22 07:59:09;;;;;;;0.30;0.30;;;6.40;76.50;;;;;;5052793;28;20108;-71
2021/04/22 08:01:35;;;;;;;0.40;0.40;;;6.40;77.60;;;;;;5053396;28;20032;-68
2021/04/22 08:04:00;;;;;;;0.63;0.40;;;6.40;76.00;;;;;;5046825;28;20029;-69
2021/04/22 08:06:26;;;;;;;0.30;0.30;;;6.50;77.60;;;;;;5045176;28;20116;-69
2021/04/22 08:08:52;;;;;;;0.52;0.43;;;6.60;76.50;;;;;;5047158;28;20032;-68
2021/04/22 08:11:18;;;;;;;0.30;0.30;;;6.60;76.50;;;;;;5038227;28;20025;-69
2021/04/22 08:13:44;;;;;;;0.55;0.40;;;6.70;75.80;;;;;;5046023;28;20070;-69
2021/04/22 08:16:10;;;;;;;0.30;0.30;;;6.80;75.50;;;;;;5053138;28;20124;-68
2021/04/22 08:18:36;;;;;;;0.50;0.30;;;6.80;73.80;;;;;;5053215;28;20025;-69
2021/04/22 08:21:01;;;;;;;0.40;0.35;;;6.80;72.60;;;;;;5052839;28;20036;-69
2021/04/22 08:23:32;;;;;;;0.45;0.40;;;6.80;72.90;;;;;;5038945;28;20502;-68
2021/04/22 08:26:00;;;;;;;0.43;0.43;;;6.90;72.20;;;;;;5035549;28;20108;-69
2021/04/22 08:28:27;;;;;;;1.67;0.40;;;6.90;70.50;;;;;;5034059;28;20044;-69
2021/04/22 08:31:03;;;;;;;2.97;0.35;;;6.90;71.20;;;;;;5051803;28;20420;-69
2021/04/22 08:33:32;;;;;;;0.40;0.40;;;7.00;71.40;;;;;;5040189;28;20021;-69
2021/04/22 08:35:58;;;;;;;19.73;1.10;;;7.10;71.00;;;;;;5049394;28;20470;-69
2021/04/22 08:38:24;;;;;;;0.40;0.40;;;7.10;69.10;;;;;;5034709;28;20100;-69
2021/04/22 08:40:51;;;;;;;0.95;0.40;;;7.10;70.10;;;;;;5052853;28;20025;-69
2021/04/22 08:43:17;;;;;;;0.30;0.30;;;7.10;69.50;;;;;;5038787;28;20040;-69
2021/04/22 08:45:44;;;;;;;2.13;0.35;;;7.00;68.70;;;;;;5038600;28;20025;-68
2021/04/22 08:48:11;;;;;;;0.38;0.38;;;6.90;69.10;;;;;;5052879;28;20047;-69
2021/04/22 08:50:38;;;;;;;0.25;0.25;;;7.00;68.70;;;;;;5035129;28;20053;-69
2021/04/22 08:53:07;;;;;;;1.63;0.40;;;7.00;68.40;;;;;;5047515;28;20383;-75
2021/04/22 08:55:34;;;;;;;0.43;0.30;;;7.00;69.30;;;;;;5043058;28;20028;-75
2021/04/22 08:58:02;;;;;;;0.63;0.40;;;7.00;68.80;;;;;;5043375;28;20091;-76
2021/04/22 09:00:34;;;;;;;0.43;0.30;;;7.00;68.60;;;;;;5049323;28;20094;-76
2021/04/22 09:03:00;;;;;;;1.27;0.50;;;7.10;68.20;;;;;;5048517;28;20033;-76
2021/04/22 09:05:26;;;;;;;0.45;0.30;;;7.10;67.30;;;;;;5043362;28;20027;-75
2021/04/22 09:07:51;;;;;;;0.98;0.47;;;7.00;67.40;;;;;;5045353;28;20020;-76
2021/04/22 09:10:20;;;;;;;1.02;0.30;;;7.10;67.80;;;;;;5049404;28;20059;-75
2021/04/22 09:13:10;;;;;;;1.15;0.40;;;7.10;67.10;;;;;;5043784;28;20027;-75
2021/04/22 09:15:38;;;;;;;1.45;0.50;;;7.20;67.20;;;;;;5047110;28;20056;-75
2021/04/22 09:18:08;;;;;;;1.25;0.30;;;7.30;66.80;;;;;;5051830;28;20035;-76
2021/04/22 09:20:46;;;;;;;1.00;0.50;;;7.30;66.90;;;;;;5046080;28;20481;-75
2021/04/22 09:23:25;;;;;;;1.38;0.50;;;7.40;66.50;;;;;;5051751;28;20052;-75
2021/04/22 09:26:05;;;;;;;0.80;0.50;;;7.40;65.50;;;;;;5045068;28;20021;-74
2021/04/22 09:28:57;;;;;;;3.47;0.43;;;7.40;65.50;;;;;;5052048;28;20033;-74
2021/04/22 09:31:27;;;;;;;0.40;0.40;;;7.40;65.80;;;;;;5051469;28;20108;-73
2021/04/22 09:34:11;;;;;;;5.10;0.60;;;7.50;65.30;;;;;;5051426;28;20017;-74
2021/04/22 09:36:41;;;;;;;0.30;0.30;;;7.70;65.00;;;;;;5052011;28;20060;-73
2021/04/22 09:39:07;;;;;;;1.55;0.30;;;7.70;64.20;;;;;;5051864;28;20468;-73
2021/04/22 09:41:35;;;;;;;0.47;0.40;;;7.60;62.70;;;;;;5051528;28;20503;-74
2021/04/22 09:44:12;;;;;;;0.47;0.30;;;7.70;63.50;;;;;;5051698;28;20021;-74
2021/04/22 09:46:44;;;;;;;1.30;0.60;;;7.60;62.90;;;;;;5051504;28;20017;-73
2021/04/22 09:49:13;;;;;;;2.67;0.30;;;7.70;63.60;;;;;;5051531;28;20031;-74
2021/04/22 09:51:40;;;;;;;0.65;0.38;;;7.70;62.70;;;;;;5050261;28;20099;-74
2021/04/22 09:54:12;;;;;;;1.75;0.40;;;7.70;63.20;;;;;;5046454;28;20051;-74
2021/04/22 09:56:47;;;;;;;0.88;0.30;;;7.70;62.80;;;;;;5051750;28;20025;-74
2021/04/22 09:59:17;;;;;;;2.45;0.30;;;7.90;64.30;;;;;;5048958;28;20078;-74
2021/04/22 10:01:44;;;;;;;;;;;8.00;62.70;;;;;;5044755;28;20039;-74
2021/04/22 10:04:10;;;;;;;1.52;0.50;;;8.00;59.90;;;;;;5031444;28;19908;-74
2021/04/22 10:06:41;;;;;;;0.38;0.30;;;8.00;61.60;;;;;;5049033;28;20507;-74
2021/04/22 10:09:08;;;;;;;1.52;0.45;;;8.00;61.30;;;;;;5051560;28;20082;-74
2021/04/22 10:11:42;;;;;;;0.63;0.50;;;7.90;60.90;;;;;;5051413;28;20028;-74
2021/04/22 10:14:08;;;;;;;1.10;0.40;;;8.00;61.30;;;;;;5050180;28;20078;-73
2021/04/22 10:16:34;;;;;;;1.52;0.82;;;8.00;60.80;;;;;;5043403;28;20033;-75
2021/04/22 10:19:00;;;;;;;0.43;0.30;;;7.90;60.20;;;;;;5048374;28;20064;-75
2021/04/22 10:21:28;;;;;;;1.85;0.50;;;7.90;60.40;;;;;;5050011;28;20061;-75
2021/04/22 10:24:06;;;;;;;2.95;0.40;;;8.00;60.40;;;;;;5051473;28;20449;-75
2021/04/22 10:26:32;;;;;;;0.85;0.43;;;8.10;60.20;;;;;;5051448;28;20021;-74
2021/04/22 10:28:57;;;;;;;3.63;0.40;;;8.10;60.00;;;;;;5051347;28;20031;-74
2021/04/22 10:31:25;;;;;;;0.30;0.30;;;8.10;59.60;;;;;;5051085;28;20400;-75
2021/04/22 10:33:53;;;;;;;0.65;0.30;;;8.10;59.60;;;;;;5051071;28;20021;-75
2021/04/22 10:36:22;;;;;;;0.40;0.40;;;8.10;60.40;;;;;;5050939;28;20074;-74
2021/04/22 10:38:50;;;;;;;1.88;0.50;;;8.20;60.10;;;;;;5050974;28;20037;-73
2021/04/22 10:41:18;;;;;;;0.80;0.40;;;8.30;60.00;;;;;;5045829;28;20029;-68
2021/04/22 10:43:45;;;;;;;0.80;0.40;;;8.40;59.50;;;;;;5044902;28;20078;-70
2021/04/22 10:46:11;;;;;;;0.25;0.25;;;8.40;59.40;;;;;;5050456;28;20036;-65
2021/04/22 10:48:37;;;;;;;1.08;0.40;;;8.40;59.70;;;;;;5047556;28;20033;-66
2021/04/22 10:51:06;;;;;;;0.65;0.30;;;8.70;67.90;;;;;;5046053;28;20030;-66
2021/04/22 10:53:38;;;;;;;3.20;0.40;;;9.00;66.50;;;;;;5046136;28;20031;-66
2021/04/22 10:56:04;;;;;;;1.85;0.40;;;9.10;63.00;;;;;;5050247;28;20025;-65
2021/04/22 10:58:43;;;;;;;0.20;0.20;;;9.20;65.30;;;;;;5050744;28;20637;-66
2021/04/22 11:01:13;;;;;;;0.40;0.40;;;9.40;65.40;;;;;;5050321;28;20047;-66
2021/04/22 11:03:40;;;;;;;0.45;0.30;;;9.50;60.30;;;;;;5044149;28;20106;-66
2021/04/22 11:06:18;;;;;;;0.45;0.40;;;9.60;64.10;;;;;;5044279;28;20025;-67
2021/04/22 11:08:51;;;;;;;1.73;0.50;;;9.80;61.40;;;;;;5037230;28;20053;-66
2021/04/22 11:11:35;;;;;;;1.42;0.38;;;9.70;62.10;;;;;;5046283;28;20018;-65
2021/04/22 11:14:06;;;;;;;0.75;0.43;;;10.50;65.30;;;;;;5040881;28;20021;-68
2021/04/22 11:16:38;;;;;;;1.90;0.30;;;10.70;56.00;;;;;;5050922;28;20021;-68
2021/04/22 11:19:25;;;;;;;0.47;0.30;;;9.90;53.90;;;;;;5050739;28;20021;-68
2021/04/22 11:22:00;;;;;;;1.65;0.38;;;9.50;54.80;;;;;;5050801;28;20064;-68
2021/04/22 11:24:30;;;;;;;0.68;0.30;;;9.30;56.20;;;;;;5045008;28;20040;-68
2021/04/22 11:27:02;;;;;;;3.92;0.40;;;9.20;55.30;;;;;;5048508;28;20021;-68
2021/04/22 11:30:10;;;;;;;1.55;0.30;;;9.10;55.30;;;;;;5051731;28;20025;-68
2021/04/22 11:32:42;;;;;;;0.40;0.30;;;9.00;54.70;;;;;;5041238;28;20067;-68
2021/04/22 11:35:16;;;;;;;0.30;0.20;;;8.90;55.30;;;;;;5045386;28;20029;-68
2021/04/22 11:37:44;;;;;;;0.63;0.25;;;8.80;54.90;;;;;;5054255;28;20021;-68
2021/04/22 11:40:18;;;;;;;0.45;0.30;;;8.90;55.00;;;;;;5053769;28;20545;-68
2021/04/22 11:42:49;;;;;;;0.25;0.25;;;8.80;54.80;;;;;;5054192;28;20049;-68
2021/04/22 11:45:22;;;;;;;0.32;0.32;;;8.80;55.00;;;;;;5053558;28;20071;-68
2021/04/22 11:47:55;;;;;;;1.52;0.43;;;8.80;54.30;;;;;;5053869;28;20380;-68
2021/04/22 11:50:28;;;;;;;1.05;0.40;;;8.80;54.70;;;;;;5040822;28;20022;-68
2021/04/22 11:53:01;;;;;;;0.43;0.40;;;8.80;54.80;;;;;;5046164;28;20036;-68
2021/04/22 11:55:34;;;;;;;0.85;0.38;;;8.80;55.00;;;;;;5039981;28;20037;-68
2021/04/22 11:58:11;;;;;;;3.10;0.30;;;8.80;54.30;;;;;;5052088;28;20052;-68
2021/04/22 12:01:02;;;;;;;2.10;0.30;;;8.70;53.40;;;;;;5053666;28;20472;-68
2021/04/22 12:03:29;;;;;;;0.70;0.40;;;8.70;54.50;;;;;;5052060;28;20157;-68
2021/04/22 12:06:02;;;;;;;2.65;0.32;;;8.70;53.80;;;;;;5053770;28;20025;-68
2021/04/22 12:08:30;;;;;;;0.30;0.30;;;8.70;53.50;;;;;;5050028;28;20171;-68
2021/04/22 12:10:56;;;;;;;0.55;0.32;;;8.70;53.30;;;;;;5049440;28;20381;-68
2021/04/22 12:13:23;;;;;;;0.30;0.30;;;8.70;52.80;;;;;;5048330;28;20109;-68
2021/04/22 12:15:52;;;;;;;0.38;0.30;;;8.70;53.20;;;;;;5033248;28;20041;-68
2021/04/22 12:18:28;;;;;;;1.83;0.30;;;8.70;53.00;;;;;;5036420;28;20757;-68
2021/04/22 12:21:06;;;;;;;0.85;0.75;;;8.70;52.90;;;;;;5040894;28;20028;-68
2021/04/22 12:23:34;;;;;;;0.20;0.20;;;8.60;53.20;;;;;;5050309;28;20048;-68
2021/04/22 12:26:30;;;;;;;0.30;0.30;;;8.60;53.20;;;;;;5053236;28;20094;-68
2021/04/22 12:29:00;;;;;;;0.65;0.40;;;8.60;53.50;;;;;;5053087;28;20029;-68
2021/04/22 12:31:32;;;;;;;0.30;0.30;;;8.50;53.70;;;;;;5053437;28;20112;-68
2021/04/22 12:34:18;;;;;;;3.30;0.30;;;8.40;53.90;;;;;;5052807;28;20304;-68
2021/04/22 12:37:03;;;;;;;0.98;0.50;;;8.60;53.70;;;;;;5046036;28;20052;-68
2021/04/22 12:39:40;;;;;;;0.75;0.40;;;8.70;53.40;;;;;;5040860;28;20021;-68
2021/04/22 12:42:13;;;;;;;1.35;0.30;;;8.80;52.70;;;;;;5052494;28;20543;-68
2021/04/22 12:44:58;;;;;;;4.22;0.50;;;8.90;52.80;;;;;;5053334;28;20376;-68
2021/04/22 12:47:45;;;;;;;0.98;0.40;;;8.90;53.60;;;;;;5052592;28;20029;-70
2021/04/22 12:50:13;;;;;;;0.73;0.32;;;9.00;52.90;;;;;;5052650;28;20021;-68
2021/04/22 12:52:39;;;;;;;1.90;0.50;;;9.00;51.70;;;;;;5050791;28;20476;-68
2021/04/22 12:55:11;;;;;;;0.85;0.30;;;8.90;51.70;;;;;;5052464;28;20070;-68
2021/04/22 12:57:37;;;;;;;6.90;0.60;;;8.80;51.90;;;;;;5051663;28;20033;-68
2021/04/22 13:00:07;;;;;;;0.50;0.50;;;8.70;53.00;;;;;;5052022;28;20032;-70
2021/04/22 13:02:33;;;;;;;0.95;0.50;;;8.80;53.00;;;;;;5052436;28;20591;-69
2021/04/22 13:05:07;;;;;;;2.47;0.45;;;8.80;52.10;;;;;;5052377;28;20490;-71
2021/04/22 13:07:36;;;;;;;0.43;0.43;;;8.70;52.00;;;;;;5052154;28;20035;-70
2021/04/22 13:10:20;;;;;;;0.65;0.30;;;8.70;51.60;;;;;;5047902;28;20117;-69
2021/04/22 13:12:48;;;;;;;0.45;0.40;;;8.70;51.80;;;;;;5050170;28;20044;-69
2021/04/22 13:15:17;;;;;;;0.30;0.30;;;8.70;51.20;;;;;;5033454;28;20413;-70
2021/04/22 13:17:43;;;;;;;0.30;0.30;;;8.70;51.30;;;;;;5044084;28;20032;-70
2021/04/22 13:20:19;;;;;;;0.30;0.30;;;8.70;51.50;;;;;;5049027;28;20033;-69
2021/04/22 13:22:54;;;;;;;1.83;0.30;;;8.70;50.90;;;;;;5051997;28;20029;-69
2021/04/22 13:25:27;;;;;;;0.30;0.30;;;8.60;51.10;;;;;;5051809;28;20468;-69
2021/04/22 13:28:18;;;;;;;0.65;0.28;;;8.70;51.20;;;;;;5052257;28;20028;-69
2021/04/22 13:30:46;;;;;;;2.22;0.30;;;8.70;51.70;;;;;;5052261;28;20028;-69
2021/04/22 13:33:19;;;;;;;1.17;0.40;;;8.70;51.40;;;;;;5049431;28;20025;-69
2021/04/22 13:35:46;;;;;;;0.63;0.35;;;8.70;51.60;;;;;;5038713;28;20358;-68
2021/04/22 13:38:16;;;;;;;0.30;0.30;;;8.60;51.10;;;;;;5051674;28;20020;-69
2021/04/22 13:40:42;;;;;;;1.55;0.60;;;8.60;51.30;;;;;;5051233;28;20473;-68
2021/04/22 13:43:08;;;;;;;0.52;0.40;;;8.70;51.50;;;;;;5052622;28;20079;-69
2021/04/22 13:45:35;;;;;;;0.50;0.40;;;8.80;51.30;;;;;;5054701;28;20480;-68
2021/04/22 13:48:30;;;;;;;0.65;0.40;;;8.80;51.50;;;;;;5046464;28;20470;-69
2021/04/22 13:51:12;;;;;;;1.02;0.30;;;8.80;50.60;;;;;;5043451;28;20393;-69
2021/04/22 13:53:39;;;;;;;0.55;0.30;;;8.70;50.50;;;;;;5046059;28;20389;-68
2021/04/22 13:56:05;;;;;;;0.32;0.30;;;8.70;50.30;;;;;;5048927;28;20025;-68
2021/04/22 13:58:43;;;;;;;0.32;0.32;;;8.70;50.40;;;;;;5046703;28;20040;-68
2021/04/22 14:01:21;;;;;;;0.63;0.50;;;8.70;50.40;;;;;;5047255;28;20469;-69
2021/04/22 14:03:47;;;;;;;0.35;0.35;;;8.70;50.70;;;;;;5048807;28;20519;-69
2021/04/22 14:06:13;;;;;;;0.40;0.38;;;8.70;50.60;;;;;;5049032;28;20052;-69
2021/04/22 14:08:39;;;;;;;1.65;0.50;;;8.70;50.70;;;;;;5049271;28;20031;-71
2021/04/22 14:11:18;;;;;;;0.80;0.30;;;8.70;50.40;;;;;;5049767;28;20602;-69
2021/04/22 14:13:49;;;;;;;0.50;0.40;;;8.70;50.60;;;;;;5050049;28;20060;-68
2021/04/22 14:16:16;;;;;;;0.75;0.30;;;8.70;50.10;;;;;;5044850;28;20524;-70
2021/04/22 14:18:42;;;;;;;1.15;0.50;;;8.70;49.90;;;;;;5049205;28;20025;-71
2021/04/22 14:21:08;;;;;;;0.45;0.40;;;8.70;50.60;;;;;;5048687;28;20024;-70
2021/04/22 14:23:34;;;;;;;1.83;0.40;;;8.80;50.80;;;;;;5048408;28;20021;-70
2021/04/22 14:26:00;;;;;;;0.75;0.40;;;8.70;50.60;;;;;;5051122;28;20066;-70
2021/04/22 14:28:26;;;;;;;0.63;0.32;;;8.80;51.20;;;;;;5044946;28;20566;-70
2021/04/22 14:30:52;;;;;;;0.30;0.30;;;8.70;50.70;;;;;;5047813;28;20029;-70
2021/04/22 14:33:17;;;;;;;0.88;0.40;;;8.70;50.90;;;;;;5041518;28;20074;-70
2021/04/22 14:35:43;;;;;;;1.65;0.30;;;8.70;51.10;;;;;;5049540;28;20033;-71
2021/04/22 14:38:09;;;;;;;1.00;0.40;;;8.70;50.50;;;;;;5046714;28;20029;-71
2021/04/22 14:40:35;;;;;;;0.40;0.38;;;8.60;50.30;;;;;;5050990;28;20491;-70
2021/04/22 14:43:02;;;;;;;3.30;1.55;;;8.50;49.60;;;;;;5050828;28;20044;-70
2021/04/22 14:45:28;;;;;;;1.00;0.50;;;8.50;49.60;;;;;;5038230;28;20040;-70
2021/04/22 14:47:53;;;;;;;0.35;0.30;;;8.50;49.90;;;;;;5050988;28;20178;-70
2021/04/22 14:50:19;;;;;;;0.20;0.20;;;8.50;50.00;;;;;;5047816;28;20017;-71
2021/04/22 14:52:45;;;;;;;0.70;0.47;;;8.40;50.60;;;;;;5050928;28;20040;-70
2021/04/22 14:55:11;;;;;;;0.40;0.40;;;8.50;50.60;;;;;;5051070;28;20029;-70
2021/04/22 14:57:37;;;;;;;0.60;0.40;;;8.50;50.50;;;;;;5050781;28;20064;-70
2021/04/22 15:00:08;;;;;;;4.50;0.40;;;8.50;51.10;;;;;;5040358;28;20034;-70
2021/04/22 15:02:34;;;;;;;1.77;0.40;;;8.50;51.10;;;;;;5050427;28;20108;-70
2021/04/22 15:04:59;;;;;;;2.10;0.50;;;8.50;50.70;;;;;;5047710;28;20113;-70
2021/04/22 15:07:28;;;;;;;0.98;0.47;;;8.50;51.00;;;;;;5046655;28;20082;-70
2021/04/22 15:09:55;;;;;;;0.70;0.30;;;8.50;50.70;;;;;;5054504;28;20025;-70
2021/04/22 15:12:22;;;;;;;4.78;0.60;;;8.50;51.10;;;;;;5053130;28;20021;-68
2021/04/22 15:14:48;;;;;;;0.73;0.40;;;8.50;51.90;;;;;;5054340;28;20088;-69
2021/04/22 15:17:14;;;;;;;4.05;0.60;;;8.90;52.60;;;;;;5054058;28;20049;-70
2021/04/22 15:19:40;;;;;;;0.32;0.30;;;8.80;51.00;;;;;;5054267;28;20025;-70
2021/04/22 15:22:07;;;;;;;0.32;0.30;;;8.80;51.20;;;;;;5045215;28;20039;-70
2021/04/22 15:24:33;;;;;;;1.33;0.43;;;8.70;50.80;;;;;;5041101;28;20486;-70
2021/04/22 15:26:59;;;;;;;1.08;0.40;;;8.70;51.20;;;;;;5054920;28;20061;-70
2021/04/22 15:29:25;;;;;;;1.30;0.40;;;8.60;51.10;;;;;;5054165;28;20044;-71
2021/04/22 15:31:59;;;;;;;1.92;0.50;;;8.60;53.40;;;;;;5053316;28;20032;-71
2021/04/22 15:34:25;;;;;;;6.10;0.50;;;8.60;51.70;;;;;;5053301;28;20017;-71
2021/04/22 15:36:51;;;;;;;0.80;0.40;;;8.50;51.50;;;;;;5054508;28;20037;-71
2021/04/22 15:39:18;;;;;;;2.53;0.50;;;8.30;51.70;;;;;;5051889;28;20469;-70
2021/04/22 15:41:44;;;;;;;1.13;0.50;;;8.30;52.10;;;;;;5034240;28;20037;-69
2021/04/22 15:44:10;;;;;;;0.50;0.30;;;8.20;52.60;;;;;;5053275;28;20103;-69
2021/04/22 15:46:36;;;;;;;0.50;0.50;;;8.20;52.70;;;;;;5053866;28;20040;-70
2021/04/22 15:49:02;;;;;;;1.27;0.40;;;8.10;52.60;;;;;;5043827;28;20024;-69
2021/04/22 15:51:28;;;;;;;2.40;0.35;;;8.00;53.00;;;;;;5048850;28;20397;-69
2021/04/22 15:53:54;;;;;;;1.98;0.60;;;8.00;53.20;;;;;;5053553;28;20023;-70
2021/04/22 15:56:21;;;;;;;2.78;0.50;;;8.00;53.60;;;;;;5037677;28;20026;-71
2021/04/22 15:58:49;;;;;;;1.25;0.50;;;8.00;53.90;;;;;;5050210;28;20103;-70
2021/04/22 16:01:18;;;;;;;2.85;0.47;;;7.90;53.70;;;;;;5045041;28;20036;-71
2021/04/22 16:03:44;;;;;;;2.15;0.77;;;7.90;53.60;;;;;;5048844;28;20029;-70
2021/04/22 16:06:10;;;;;;;3.13;0.52;;;7.90;53.70;;;;;;5053417;28;20477;-70
2021/04/22 16:08:37;;;;;;;1.75;0.50;;;7.90;53.80;;;;;;5052506;28;20491;-70
2021/04/22 16:11:04;;;;;;;2.03;0.43;;;7.80;53.80;;;;;;5053186;28;20096;-70
2021/04/22 16:13:30;;;;;;;0.57;0.43;;;7.80;53.80;;;;;;5044140;28;20022;-73
2021/04/22 16:15:55;;;;;;;1.10;0.40;;;7.90;53.80;;;;;;5052464;28;20505;-73
2021/04/22 16:18:21;;;;;;;2.78;0.40;;;7.80;53.50;;;;;;5040073;28;20025;-73
2021/04/22 16:20:51;;;;;;;0.90;0.38;;;7.90;53.90;;;;;;5053957;28;20369;-72
2021/04/22 16:23:19;;;;;;;0.25;0.25;;;7.90;53.60;;;;;;5053635;28;20037;-73
2021/04/22 16:25:45;;;;;;;1.02;0.50;;;7.90;53.70;;;;;;5041075;28;20040;-73
2021/04/22 16:28:11;;;;;;;0.68;0.40;;;7.90;53.10;;;;;;5051573;28;20060;-73
2021/04/22 16:30:37;;;;;;;0.88;0.50;;;7.80;52.90;;;;;;5053949;28;20064;-73
2021/04/22 16:33:03;;;;;;;0.30;0.30;;;7.80;52.80;;;;;;5052935;28;20587;-73
2021/04/22 16:35:29;;;;;;;0.50;0.50;;;7.70;52.80;;;;;;5053393;28;20117;-73
2021/04/22 16:37:55;;;;;;;2.00;0.82;;;7.70;53.10;;;;;;5053747;28;20024;-73
2021/04/22 16:40:21;;;;;;;1.75;0.40;;;7.70;52.90;;;;;;5053377;28;20025;-73
2021/04/22 16:42:47;;;;;;;1.05;0.40;;;7.80;53.00;;;;;;5052894;28;20044;-73
2021/04/22 16:45:15;;;;;;;0.40;0.40;;;7.80;52.60;;;;;;5051342;28;20028;-72
2021/04/22 16:47:41;;;;;;;0.52;0.30;;;7.70;52.60;;;;;;5053913;28;20488;-73
2021/04/22 16:50:09;;;;;;;1.02;0.40;;;7.70;52.80;;;;;;5050882;28;20033;-73
2021/04/22 16:52:34;;;;;;;0.40;0.40;;;7.70;52.80;;;;;;5053351;28;20021;-73
2021/04/22 16:55:00;;;;;;;1.08;0.60;;;7.60;53.40;;;;;;5069665;28;20032;-73
2021/04/22 16:57:29;;;;;;;1.55;0.50;;;7.50;53.10;;;;;;5035949;28;20029;-72
2021/04/22 16:59:54;;;;;;;1.20;0.30;;;7.50;53.20;;;;;;5052828;28;20449;-73
2021/04/22 17:02:20;;;;;;;0.45;0.45;;;7.60;53.30;;;;;;5052430;28;20064;-73
2021/04/22 17:04:46;;;;;;;5.90;0.50;;;7.60;53.30;;;;;;5052800;28;20052;-73
2021/04/22 17:07:12;;;;;;;2.92;0.52;;;7.50;53.20;;;;;;5052995;28;20111;-73
2021/04/22 17:09:38;;;;;;;0.30;0.30;;;7.50;53.60;;;;;;5052983;28;20044;-77
2021/04/22 17:12:04;;;;;;;0.85;0.50;;;7.50;53.90;;;;;;5053253;28;20033;-77
2021/04/22 17:14:30;;;;;;;1.05;0.68;;;7.50;53.80;;;;;;5052232;28;20066;-79
2021/04/22 17:16:56;;;;;;;0.45;0.43;;;7.50;54.30;;;;;;5052163;28;20117;-71
2021/04/22 17:19:22;;;;;;;0.50;0.40;;;7.50;54.70;;;;;;5052261;28;20021;-71